createdAt,value
2019-03-30T00:00:24.037Z,0.00
2019-03-30T00:01:23.908Z,0.00
2019-03-30T00:02:23.828Z,0.00
2019-03-30T00:03:23.745Z,0.00
2019-03-30T00:04:23.667Z,0.00
2019-03-30T00:05:23.587Z,0.00
2019-03-30T00:06:23.509Z,0.00
2019-03-30T00:07:23.427Z,0.00
2019-03-30T00:08:23.346Z,0.00
2019-03-30T00:09:23.266Z,0.00
2019-03-30T00:10:23.185Z,0.00
2019-03-30T00:11:23.105Z,0.00
2019-03-30T00:12:23.222Z,0.00
2019-03-30T00:13:22.954Z,0.00
2019-03-30T00:14:22.866Z,0.00
2019-03-30T00:15:22.786Z,0.00
2019-03-30T00:16:22.705Z,0.00
2019-03-30T00:17:22.625Z,0.00
2019-03-30T00:18:22.544Z,0.00
2019-03-30T00:19:34.424Z,0.00
2019-03-30T00:20:22.386Z,0.00
2019-03-30T00:21:22.305Z,0.00
2019-03-30T00:22:22.223Z,0.00
2019-03-30T00:23:22.144Z,0.00
2019-03-30T00:24:22.064Z,0.00
2019-03-30T00:25:21.984Z,0.00
2019-03-30T00:26:21.903Z,0.00
2019-03-30T00:27:21.824Z,0.00
2019-03-30T00:28:21.744Z,0.00
2019-03-30T00:29:21.664Z,0.00
2019-03-30T00:30:21.585Z,0.00
2019-03-30T00:31:21.505Z,0.00
2019-03-30T00:32:21.427Z,0.00
2019-03-30T00:33:21.345Z,0.00
2019-03-30T00:34:21.262Z,0.00
2019-03-30T00:35:21.185Z,0.00
2019-03-30T00:36:21.154Z,0.00
2019-03-30T00:37:21.024Z,0.00
2019-03-30T00:38:20.943Z,0.00
2019-03-30T00:39:20.865Z,0.00
2019-03-30T00:40:20.786Z,0.00
2019-03-30T00:41:20.754Z,0.00
2019-03-30T00:42:20.623Z,0.00
2019-03-30T00:43:20.544Z,0.00
2019-03-30T00:44:20.464Z,0.00
2019-03-30T00:45:20.385Z,0.00
2019-03-30T00:46:20.302Z,0.00
2019-03-30T00:47:20.226Z,0.00
2019-03-30T00:48:20.144Z,0.00
2019-03-30T00:49:20.064Z,0.00
2019-03-30T00:50:19.983Z,0.00
2019-03-30T00:51:19.903Z,0.00
2019-03-30T00:52:19.823Z,0.00
2019-03-30T00:53:19.743Z,0.00
2019-03-30T00:54:20.012Z,0.00
2019-03-30T00:55:19.582Z,0.00
2019-03-30T00:56:19.503Z,0.00
2019-03-30T00:57:19.425Z,0.00
2019-03-30T00:58:19.342Z,0.00
2019-03-30T00:59:19.272Z,0.00
2019-03-30T01:00:19.184Z,0.00
2019-03-30T01:01:19.104Z,0.00
2019-03-30T01:02:19.021Z,0.00
2019-03-30T01:03:18.941Z,0.00
2019-03-30T01:04:18.862Z,0.00
2019-03-30T01:05:18.782Z,0.00
2019-03-30T01:06:18.700Z,0.00
2019-03-30T01:07:18.625Z,0.00
2019-03-30T01:08:18.540Z,0.00
2019-03-30T01:09:18.461Z,0.00
2019-03-30T01:10:18.389Z,0.00
2019-03-30T01:11:18.299Z,0.00
2019-03-30T01:12:18.221Z,0.00
2019-03-30T01:13:18.140Z,0.00
2019-03-30T01:14:18.058Z,0.00
2019-03-30T01:15:17.977Z,0.00
2019-03-30T01:16:17.899Z,0.00
2019-03-30T01:17:17.818Z,0.00
2019-03-30T01:18:17.736Z,0.00
2019-03-30T01:19:17.658Z,0.00
2019-03-30T01:20:17.578Z,0.00
2019-03-30T01:21:17.498Z,0.00
2019-03-30T01:22:17.416Z,0.00
2019-03-30T01:23:17.336Z,0.00
2019-03-30T01:24:17.257Z,0.00
2019-03-30T01:25:17.181Z,0.00
2019-03-30T01:26:17.101Z,0.00
2019-03-30T01:27:17.017Z,0.00
2019-03-30T01:28:16.935Z,0.00
2019-03-30T01:29:16.854Z,0.00
2019-03-30T01:30:22.957Z,0.00
2019-03-30T01:31:16.695Z,0.00
2019-03-30T01:32:16.615Z,0.00
2019-03-30T01:33:16.537Z,0.00
2019-03-30T01:34:16.454Z,0.00
2019-03-30T01:35:16.505Z,0.00
2019-03-30T01:36:16.295Z,0.00
2019-03-30T01:37:16.213Z,0.00
2019-03-30T01:38:16.132Z,0.00
2019-03-30T01:39:16.141Z,0.00
2019-03-30T01:40:15.973Z,0.00
2019-03-30T01:41:15.893Z,0.00
2019-03-30T01:42:15.811Z,0.00
2019-03-30T01:43:15.731Z,0.00
2019-03-30T01:44:15.653Z,0.00
2019-03-30T01:45:15.572Z,0.00
2019-03-30T01:46:15.490Z,0.00
2019-03-30T01:47:15.409Z,0.00
2019-03-30T01:48:15.330Z,0.00
2019-03-30T01:49:15.251Z,0.00
2019-03-30T01:50:17.803Z,0.00
2019-03-30T01:51:15.088Z,0.00
2019-03-30T01:52:15.008Z,0.00
2019-03-30T01:53:14.928Z,0.00
2019-03-30T01:54:14.847Z,0.00
2019-03-30T01:55:14.767Z,0.00
2019-03-30T01:56:14.685Z,0.00
2019-03-30T01:57:14.606Z,0.00
2019-03-30T01:58:14.525Z,0.00
2019-03-30T01:59:14.445Z,0.00
2019-03-30T02:00:14.366Z,0.00
2019-03-30T02:01:14.287Z,0.00
2019-03-30T02:02:14.204Z,0.00
2019-03-30T02:03:14.123Z,0.00
2019-03-30T02:04:14.044Z,0.00
2019-03-30T02:05:14.014Z,0.00
2019-03-30T02:06:13.882Z,0.00
2019-03-30T02:07:13.801Z,0.00
2019-03-30T02:08:13.725Z,0.00
2019-03-30T02:09:13.641Z,0.00
2019-03-30T02:10:13.560Z,0.00
2019-03-30T02:11:13.482Z,0.00
2019-03-30T02:12:13.399Z,0.00
2019-03-30T02:13:13.319Z,0.00
2019-03-30T02:14:13.238Z,0.00
2019-03-30T02:15:13.158Z,0.00
2019-03-30T02:16:13.077Z,0.00
2019-03-30T02:17:12.998Z,0.00
2019-03-30T02:18:12.919Z,0.00
2019-03-30T02:19:12.834Z,0.00
2019-03-30T02:20:12.756Z,0.00
2019-03-30T02:21:12.675Z,0.00
2019-03-30T02:22:12.594Z,0.00
2019-03-30T02:23:12.514Z,0.00
2019-03-30T02:24:12.435Z,0.00
2019-03-30T02:25:12.354Z,0.00
2019-03-30T02:26:12.272Z,0.00
2019-03-30T02:27:12.191Z,0.00
2019-03-30T02:28:12.111Z,0.00
2019-03-30T02:29:12.031Z,0.00
2019-03-30T02:30:11.952Z,0.00
2019-03-30T02:31:11.870Z,0.00
2019-03-30T02:32:11.794Z,0.00
2019-03-30T02:33:11.710Z,0.00
2019-03-30T02:34:11.634Z,0.00
2019-03-30T02:35:11.546Z,0.00
2019-03-30T02:36:11.474Z,0.00
2019-03-30T02:37:11.386Z,0.00
2019-03-30T02:38:11.306Z,0.00
2019-03-30T02:39:11.228Z,0.00
2019-03-30T02:40:11.144Z,0.00
2019-03-30T02:41:11.064Z,0.00
2019-03-30T02:42:10.982Z,0.00
2019-03-30T02:43:10.953Z,0.00
2019-03-30T02:44:10.823Z,0.00
2019-03-30T02:45:10.741Z,0.00
2019-03-30T02:46:10.677Z,0.00
2019-03-30T02:47:10.580Z,0.00
2019-03-30T02:48:10.500Z,0.00
2019-03-30T02:49:10.421Z,0.00
2019-03-30T02:50:10.345Z,0.00
2019-03-30T02:51:10.259Z,0.00
2019-03-30T02:52:10.177Z,0.00
2019-03-30T02:53:10.147Z,0.00
2019-03-30T02:54:10.018Z,0.00
2019-03-30T02:55:12.561Z,0.00
2019-03-30T02:56:09.857Z,0.00
2019-03-30T02:57:09.920Z,0.00
2019-03-30T02:58:09.694Z,0.00
2019-03-30T02:59:09.614Z,0.00
2019-03-30T03:00:09.533Z,0.00
2019-03-30T03:01:09.452Z,0.00
2019-03-30T03:02:09.371Z,0.00
2019-03-30T03:03:09.296Z,0.00
2019-03-30T03:04:09.211Z,0.00
2019-03-30T03:05:09.130Z,0.00
2019-03-30T03:06:09.053Z,0.00
2019-03-30T03:07:08.970Z,0.00
2019-03-30T03:08:08.912Z,0.00
2019-03-30T03:09:08.809Z,0.00
2019-03-30T03:10:08.727Z,0.00
2019-03-30T03:11:08.646Z,0.00
2019-03-30T03:12:08.566Z,0.00
2019-03-30T03:13:08.487Z,0.00
2019-03-30T03:14:08.516Z,0.00
2019-03-30T03:15:08.323Z,0.00
2019-03-30T03:16:08.243Z,0.00
2019-03-30T03:17:08.174Z,0.00
2019-03-30T03:18:08.087Z,0.00
2019-03-30T03:19:08.001Z,0.00
2019-03-30T03:20:07.954Z,0.00
2019-03-30T03:21:08.785Z,0.00
2019-03-30T03:22:07.760Z,0.00
2019-03-30T03:23:07.681Z,0.00
2019-03-30T03:24:07.600Z,0.00
2019-03-30T03:25:07.520Z,0.00
2019-03-30T03:26:07.438Z,0.00
2019-03-30T03:27:07.358Z,0.00
2019-03-30T03:28:07.279Z,0.00
2019-03-30T03:29:07.241Z,0.00
2019-03-30T03:30:07.173Z,0.00
2019-03-30T03:31:07.052Z,0.00
2019-03-30T03:32:06.959Z,0.00
2019-03-30T03:33:06.884Z,0.00
2019-03-30T03:34:06.901Z,0.00
2019-03-30T03:35:06.730Z,0.00
2019-03-30T03:36:06.638Z,0.00
2019-03-30T03:37:06.557Z,0.00
2019-03-30T03:38:06.473Z,0.00
2019-03-30T03:39:06.395Z,0.00
2019-03-30T03:40:06.315Z,0.00
2019-03-30T03:41:06.237Z,0.00
2019-03-30T03:42:06.152Z,0.00
2019-03-30T03:43:06.088Z,0.00
2019-03-30T03:44:05.993Z,0.00
2019-03-30T03:45:06.013Z,0.00
2019-03-30T03:46:05.831Z,0.00
2019-03-30T03:47:05.752Z,0.00
2019-03-30T03:48:05.672Z,0.00
2019-03-30T03:49:05.594Z,0.00
2019-03-30T03:50:05.511Z,0.00
2019-03-30T03:51:05.431Z,0.00
2019-03-30T03:52:05.351Z,0.00
2019-03-30T03:53:05.313Z,0.00
2019-03-30T03:54:05.189Z,0.00
2019-03-30T03:55:05.109Z,0.00
2019-03-30T03:56:05.031Z,0.00
2019-03-30T03:57:04.948Z,0.00
2019-03-30T03:58:04.875Z,0.00
2019-03-30T03:59:04.789Z,0.00
2019-03-30T04:00:04.706Z,0.00
2019-03-30T04:01:04.629Z,0.00
2019-03-30T04:02:04.550Z,0.00
2019-03-30T04:03:04.466Z,0.00
2019-03-30T04:04:04.421Z,0.00
2019-03-30T04:05:04.306Z,0.00
2019-03-30T04:06:04.311Z,0.00
2019-03-30T04:07:04.144Z,0.00
2019-03-30T04:08:04.067Z,0.00
2019-03-30T04:09:03.995Z,0.00
2019-03-30T04:10:03.955Z,0.00
2019-03-30T04:11:03.821Z,0.00
2019-03-30T04:12:03.861Z,0.00
2019-03-30T04:13:06.921Z,0.00
2019-03-30T04:14:03.599Z,0.00
2019-03-30T04:15:03.549Z,0.00
2019-03-30T04:16:03.422Z,0.00
2019-03-30T04:17:03.339Z,0.00
2019-03-30T04:18:03.264Z,0.00
2019-03-30T04:19:03.187Z,0.00
2019-03-30T04:20:03.112Z,0.00
2019-03-30T04:21:03.019Z,0.00
2019-03-30T04:22:02.935Z,0.00
2019-03-30T04:23:02.859Z,0.00
2019-03-30T04:24:02.845Z,0.00
2019-03-30T04:25:02.692Z,0.00
2019-03-30T04:26:02.610Z,0.00
2019-03-30T04:27:02.531Z,0.00
2019-03-30T04:28:02.453Z,0.00
2019-03-30T04:29:02.373Z,0.00
2019-03-30T04:30:02.296Z,0.00
2019-03-30T04:31:02.216Z,0.00
2019-03-30T04:32:02.128Z,0.00
2019-03-30T04:33:02.047Z,0.00
2019-03-30T04:34:01.964Z,0.00
2019-03-30T04:35:01.915Z,0.00
2019-03-30T04:36:01.802Z,0.00
2019-03-30T04:37:01.722Z,0.00
2019-03-30T04:38:01.639Z,0.00
2019-03-30T04:39:01.567Z,0.00
2019-03-30T04:40:01.491Z,0.00
2019-03-30T04:41:01.401Z,0.00
2019-03-30T04:42:01.316Z,0.00
2019-03-30T04:43:01.237Z,0.00
2019-03-30T04:44:01.155Z,0.00
2019-03-30T04:45:01.074Z,0.00
2019-03-30T04:46:00.998Z,0.00
2019-03-30T04:47:00.912Z,0.00
2019-03-30T04:48:00.833Z,0.00
2019-03-30T04:49:00.751Z,0.00
2019-03-30T04:50:00.685Z,0.00
2019-03-30T04:51:00.590Z,0.00
2019-03-30T04:52:00.507Z,0.00
2019-03-30T04:53:00.429Z,0.00
2019-03-30T04:54:00.347Z,0.00
2019-03-30T04:55:00.495Z,0.00
2019-03-30T04:56:00.183Z,0.00
2019-03-30T04:57:00.104Z,0.00
2019-03-30T04:58:00.022Z,0.00
2019-03-30T04:58:59.941Z,0.00
2019-03-30T04:59:59.859Z,0.00
2019-03-30T05:00:59.781Z,0.00
2019-03-30T05:01:59.698Z,0.00
2019-03-30T05:02:59.716Z,5.63
2019-03-30T05:03:59.542Z,5.63
2019-03-30T05:04:59.457Z,5.63
2019-03-30T05:05:59.374Z,5.63
2019-03-30T05:06:59.306Z,5.63
2019-03-30T05:07:59.213Z,5.63
2019-03-30T05:08:59.133Z,5.63
2019-03-30T05:09:59.051Z,11.25
2019-03-30T05:10:58.970Z,11.25
2019-03-30T05:11:58.889Z,11.25
2019-03-30T05:12:58.808Z,11.25
2019-03-30T05:13:58.727Z,11.25
2019-03-30T05:14:58.647Z,16.88
2019-03-30T05:15:58.565Z,16.88
2019-03-30T05:16:58.485Z,16.88
2019-03-30T05:17:58.403Z,16.88
2019-03-30T05:18:58.323Z,22.50
2019-03-30T05:19:58.242Z,22.50
2019-03-30T05:20:58.161Z,22.50
2019-03-30T05:22:11.612Z,22.50
2019-03-30T05:22:58.001Z,28.13
2019-03-30T05:23:57.919Z,28.13
2019-03-30T05:24:57.842Z,28.13
2019-03-30T05:25:57.758Z,33.75
2019-03-30T05:26:57.676Z,33.75
2019-03-30T05:27:57.595Z,33.75
2019-03-30T05:28:57.514Z,33.75
2019-03-30T05:29:57.436Z,39.38
2019-03-30T05:30:57.352Z,39.38
2019-03-30T05:31:57.272Z,39.38
2019-03-30T05:33:05.632Z,45.00
2019-03-30T05:33:57.110Z,45.00
2019-03-30T05:34:57.030Z,45.00
2019-03-30T05:35:56.949Z,45.00
2019-03-30T05:36:56.873Z,50.63
2019-03-30T05:37:56.786Z,50.63
2019-03-30T05:38:56.719Z,50.63
2019-03-30T05:39:56.627Z,50.63
2019-03-30T05:40:56.545Z,56.25
2019-03-30T05:41:56.462Z,56.25
2019-03-30T05:42:56.383Z,56.25
2019-03-30T05:43:56.302Z,56.25
2019-03-30T05:44:57.776Z,61.88
2019-03-30T05:45:56.140Z,61.88
2019-03-30T05:46:56.059Z,61.88
2019-03-30T05:47:55.980Z,61.88
2019-03-30T05:48:55.900Z,67.50
2019-03-30T05:49:55.818Z,67.50
2019-03-30T05:50:55.738Z,67.50
2019-03-30T05:51:55.657Z,67.50
2019-03-30T05:52:55.577Z,73.13
2019-03-30T05:53:55.596Z,73.13
2019-03-30T05:54:55.415Z,73.13
2019-03-30T05:55:55.334Z,73.13
2019-03-30T05:56:55.253Z,78.75
2019-03-30T05:57:55.172Z,78.75
2019-03-30T05:58:55.091Z,78.75
2019-03-30T05:59:56.053Z,78.75
2019-03-30T06:00:54.931Z,84.38
2019-03-30T06:01:54.849Z,84.38
2019-03-30T06:02:54.768Z,84.38
2019-03-30T06:03:54.690Z,84.38
2019-03-30T06:04:54.609Z,90.00
2019-03-30T06:05:54.528Z,90.00
2019-03-30T06:06:54.447Z,90.00
2019-03-30T06:07:54.367Z,90.00
2019-03-30T06:08:54.288Z,95.63
2019-03-30T06:09:54.206Z,95.63
2019-03-30T06:10:54.125Z,95.63
2019-03-30T06:11:54.046Z,101.25
2019-03-30T06:12:53.966Z,101.25
2019-03-30T06:13:53.885Z,101.25
2019-03-30T06:14:53.805Z,106.88
2019-03-30T06:15:53.727Z,106.88
2019-03-30T06:16:53.644Z,106.88
2019-03-30T06:17:53.565Z,106.88
2019-03-30T06:18:53.488Z,106.88
2019-03-30T06:19:53.404Z,112.50
2019-03-30T06:20:53.323Z,112.50
2019-03-30T06:21:53.242Z,112.50
2019-03-30T06:22:53.162Z,118.13
2019-03-30T06:23:53.082Z,118.13
2019-03-30T06:24:53.003Z,118.13
2019-03-30T06:25:52.922Z,118.13
2019-03-30T06:26:52.842Z,112.50
2019-03-30T06:27:52.773Z,118.13
2019-03-30T06:28:52.685Z,118.13
2019-03-30T06:29:52.599Z,118.13
2019-03-30T06:30:52.520Z,118.13
2019-03-30T06:31:52.441Z,123.75
2019-03-30T06:32:52.363Z,123.75
2019-03-30T06:33:52.280Z,123.75
2019-03-30T06:34:52.199Z,123.75
2019-03-30T06:35:52.120Z,123.75
2019-03-30T06:36:52.040Z,123.75
2019-03-30T06:37:51.986Z,129.38
2019-03-30T06:38:51.880Z,129.38
2019-03-30T06:39:51.804Z,129.38
2019-03-30T06:40:51.721Z,129.38
2019-03-30T06:41:51.728Z,129.38
2019-03-30T06:43:51.510Z,135.00
2019-03-30T06:44:51.403Z,135.00
2019-03-30T06:45:51.323Z,135.00
2019-03-30T06:46:51.445Z,135.00
2019-03-30T06:47:51.163Z,135.00
2019-03-30T06:48:51.085Z,135.00
2019-03-30T06:49:51.037Z,135.00
2019-03-30T06:50:50.953Z,140.63
2019-03-30T06:51:50.846Z,140.63
2019-03-30T06:52:57.596Z,140.63
2019-03-30T06:53:50.756Z,140.63
2019-03-30T06:54:50.661Z,140.63
2019-03-30T06:55:50.554Z,140.63
2019-03-30T06:56:50.475Z,146.25
2019-03-30T06:57:50.370Z,146.25
2019-03-30T06:58:50.291Z,146.25
2019-03-30T06:59:50.216Z,146.25
2019-03-30T07:00:50.134Z,146.25
2019-03-30T07:01:50.155Z,146.25
2019-03-30T07:02:49.977Z,151.88
2019-03-30T07:03:49.897Z,151.88
2019-03-30T07:04:49.821Z,151.88
2019-03-30T07:05:49.739Z,151.88
2019-03-30T07:06:49.661Z,151.88
2019-03-30T07:07:49.584Z,151.88
2019-03-30T07:08:49.505Z,157.50
2019-03-30T07:09:49.426Z,157.50
2019-03-30T07:10:49.376Z,157.50
2019-03-30T07:11:49.271Z,157.50
2019-03-30T07:12:49.196Z,157.50
2019-03-30T07:13:49.114Z,157.50
2019-03-30T07:14:49.037Z,157.50
2019-03-30T07:15:48.962Z,163.13
2019-03-30T07:16:48.883Z,163.13
2019-03-30T07:17:48.805Z,163.13
2019-03-30T07:18:48.726Z,163.13
2019-03-30T07:19:48.649Z,163.13
2019-03-30T07:20:48.573Z,163.13
2019-03-30T07:21:48.494Z,163.13
2019-03-30T07:22:51.187Z,163.13
2019-03-30T07:23:48.339Z,163.13
2019-03-30T07:24:48.263Z,163.13
2019-03-30T07:25:48.212Z,168.75
2019-03-30T07:26:48.113Z,168.75
2019-03-30T07:27:48.033Z,168.75
2019-03-30T07:28:47.962Z,168.75
2019-03-30T07:29:47.878Z,168.75
2019-03-30T07:30:47.804Z,168.75
2019-03-30T07:31:47.725Z,168.75
2019-03-30T07:32:47.647Z,168.75
2019-03-30T07:33:47.570Z,168.75
2019-03-30T07:34:47.496Z,174.38
2019-03-30T07:35:47.416Z,174.38
2019-03-30T07:36:47.342Z,174.38
2019-03-30T07:37:47.262Z,174.38
2019-03-30T07:38:47.188Z,174.38
2019-03-30T07:39:47.112Z,174.38
2019-03-30T07:40:47.035Z,174.38
2019-03-30T07:41:46.957Z,174.38
2019-03-30T07:42:46.883Z,174.38
2019-03-30T07:43:46.806Z,180.00
2019-03-30T07:44:46.729Z,180.00
2019-03-30T07:45:46.652Z,180.00
2019-03-30T07:46:46.578Z,180.00
2019-03-30T07:47:46.499Z,180.00
2019-03-30T07:48:46.435Z,180.00
2019-03-30T07:49:46.349Z,180.00
2019-03-30T07:50:46.271Z,180.00
2019-03-30T07:51:46.195Z,185.63
2019-03-30T07:52:46.120Z,185.63
2019-03-30T07:53:46.047Z,185.63
2019-03-30T07:54:45.968Z,185.63
2019-03-30T07:55:45.893Z,185.63
2019-03-30T07:56:45.818Z,185.63
2019-03-30T07:57:45.745Z,185.63
2019-03-30T07:58:45.668Z,185.63
2019-03-30T07:59:45.592Z,185.63
2019-03-30T08:00:45.518Z,191.25
2019-03-30T08:01:45.438Z,191.25
2019-03-30T08:02:45.363Z,191.25
2019-03-30T08:03:45.286Z,191.25
2019-03-30T08:04:45.213Z,191.25
2019-03-30T08:05:45.136Z,191.25
2019-03-30T08:06:45.059Z,191.25
2019-03-30T08:07:44.985Z,191.25
2019-03-30T08:08:44.910Z,191.25
2019-03-30T08:09:44.833Z,191.25
2019-03-30T08:10:44.759Z,191.25
2019-03-30T08:11:44.683Z,196.88
2019-03-30T08:12:44.608Z,196.88
2019-03-30T08:13:44.533Z,196.88
2019-03-30T08:14:45.247Z,196.88
2019-03-30T08:15:44.381Z,196.88
2019-03-30T08:16:44.306Z,196.88
2019-03-30T08:17:44.230Z,196.88
2019-03-30T08:18:44.155Z,196.88
2019-03-30T08:19:44.079Z,208.13
2019-03-30T08:20:44.005Z,202.50
2019-03-30T08:21:43.930Z,202.50
2019-03-30T08:22:43.854Z,202.50
2019-03-30T08:23:43.778Z,202.50
2019-03-30T08:24:43.707Z,202.50
2019-03-30T08:25:43.629Z,202.50
2019-03-30T08:26:43.554Z,202.50
2019-03-30T08:27:43.480Z,202.50
2019-03-30T08:28:43.404Z,208.13
2019-03-30T08:29:43.329Z,208.13
2019-03-30T08:30:43.256Z,208.13
2019-03-30T08:31:43.179Z,208.13
2019-03-30T08:32:43.106Z,208.13
2019-03-30T08:33:43.030Z,208.13
2019-03-30T08:34:42.955Z,208.13
2019-03-30T08:35:42.881Z,208.13
2019-03-30T08:36:42.957Z,208.13
2019-03-30T08:37:42.731Z,213.75
2019-03-30T08:38:42.710Z,213.75
2019-03-30T08:39:42.585Z,213.75
2019-03-30T08:40:42.509Z,213.75
2019-03-30T08:41:42.433Z,213.75
2019-03-30T08:42:42.359Z,213.75
2019-03-30T08:43:42.284Z,213.75
2019-03-30T08:44:42.228Z,213.75
2019-03-30T08:45:42.133Z,213.75
2019-03-30T08:46:42.060Z,219.38
2019-03-30T08:47:41.986Z,219.38
2019-03-30T08:48:41.914Z,219.38
2019-03-30T08:49:41.836Z,219.38
2019-03-30T08:50:41.762Z,219.38
2019-03-30T08:51:41.689Z,219.38
2019-03-30T08:52:41.615Z,219.38
2019-03-30T08:53:54.055Z,219.38
2019-03-30T08:54:41.465Z,225.00
2019-03-30T08:55:41.396Z,225.00
2019-03-30T08:56:41.318Z,225.00
2019-03-30T08:57:41.240Z,225.00
2019-03-30T08:58:41.168Z,225.00
2019-03-30T08:59:41.094Z,225.00
2019-03-30T09:00:41.026Z,225.00
2019-03-30T09:01:40.946Z,230.63
2019-03-30T09:02:40.871Z,230.63
2019-03-30T09:03:40.799Z,230.63
2019-03-30T09:04:40.725Z,230.63
2019-03-30T09:05:40.654Z,230.63
2019-03-30T09:06:40.576Z,230.63
2019-03-30T09:07:40.502Z,241.88
2019-03-30T09:08:40.429Z,236.25
2019-03-30T09:09:40.353Z,236.25
2019-03-30T09:10:40.279Z,236.25
2019-03-30T09:11:43.293Z,236.25
2019-03-30T09:12:40.134Z,236.25
2019-03-30T09:13:40.061Z,236.25
2019-03-30T09:14:39.992Z,236.25
2019-03-30T09:15:39.914Z,241.88
2019-03-30T09:16:39.838Z,241.88
2019-03-30T09:17:39.765Z,241.88
2019-03-30T09:18:39.689Z,241.88
2019-03-30T09:19:39.619Z,241.88
2019-03-30T09:20:39.543Z,241.88
2019-03-30T09:21:39.468Z,247.50
2019-03-30T09:22:39.395Z,247.50
2019-03-30T09:23:39.321Z,247.50
2019-03-30T09:24:39.250Z,247.50
2019-03-30T09:25:39.173Z,247.50
2019-03-30T09:26:39.101Z,247.50
2019-03-30T09:27:39.027Z,247.50
2019-03-30T09:28:38.954Z,253.13
2019-03-30T09:29:38.879Z,253.13
2019-03-30T09:30:38.806Z,253.13
2019-03-30T09:31:38.732Z,253.13
2019-03-30T09:32:38.661Z,253.13
2019-03-30T09:33:38.585Z,253.13
2019-03-30T09:34:38.512Z,253.13
2019-03-30T09:35:38.439Z,258.75
2019-03-30T09:36:38.562Z,258.75
2019-03-30T09:37:38.295Z,258.75
2019-03-30T09:38:38.218Z,258.75
2019-03-30T09:39:38.144Z,258.75
2019-03-30T09:40:38.073Z,264.38
2019-03-30T09:41:37.998Z,264.38
2019-03-30T09:42:37.925Z,264.38
2019-03-30T09:43:37.893Z,264.38
2019-03-30T09:44:37.777Z,270.00
2019-03-30T09:45:37.705Z,270.00
2019-03-30T09:46:37.631Z,270.00
2019-03-30T09:47:37.557Z,270.00
2019-03-30T09:48:37.485Z,270.00
2019-03-30T09:49:37.412Z,270.00
2019-03-30T09:50:37.342Z,275.63
2019-03-30T09:51:37.264Z,275.63
2019-03-30T09:52:37.191Z,275.63
2019-03-30T09:53:37.118Z,275.63
2019-03-30T09:54:37.045Z,275.63
2019-03-30T09:55:36.971Z,281.25
2019-03-30T09:56:36.898Z,281.25
2019-03-30T09:57:36.825Z,281.25
2019-03-30T09:58:36.754Z,286.88
2019-03-30T09:59:36.679Z,286.88
2019-03-30T10:00:36.657Z,292.50
2019-03-30T10:01:36.532Z,292.50
2019-03-30T10:02:36.459Z,292.50
2019-03-30T10:03:36.387Z,298.13
2019-03-30T10:04:36.315Z,298.13
2019-03-30T10:05:36.240Z,298.13
2019-03-30T10:06:36.320Z,303.75
2019-03-30T10:07:36.094Z,303.75
2019-03-30T10:08:36.021Z,303.75
2019-03-30T10:09:35.949Z,309.38
2019-03-30T10:10:35.883Z,315.00
2019-03-30T10:11:35.804Z,315.00
2019-03-30T10:12:35.731Z,326.25
2019-03-30T10:13:35.656Z,320.63
2019-03-30T10:14:35.584Z,326.25
2019-03-30T10:15:35.511Z,326.25
2019-03-30T10:16:35.488Z,326.25
2019-03-30T10:17:35.366Z,326.25
2019-03-30T10:18:35.292Z,337.50
2019-03-30T10:19:35.221Z,343.13
2019-03-30T10:20:35.148Z,343.13
2019-03-30T10:21:35.074Z,371.25
2019-03-30T10:22:35.003Z,500.63
2019-03-30T10:23:34.930Z,1035.00
2019-03-30T10:24:38.212Z,1659.38
2019-03-30T10:25:34.785Z,1423.13
2019-03-30T10:26:34.717Z,950.63
2019-03-30T10:27:34.641Z,748.13
2019-03-30T10:28:34.571Z,736.88
2019-03-30T10:29:34.496Z,1181.25
2019-03-30T10:30:34.425Z,1085.63
2019-03-30T10:31:34.353Z,680.63
2019-03-30T10:32:34.283Z,798.75
2019-03-30T10:33:34.210Z,1136.25
2019-03-30T10:34:34.138Z,1265.63
2019-03-30T10:35:34.067Z,866.25
2019-03-30T10:36:33.996Z,534.38
2019-03-30T10:37:33.925Z,433.13
2019-03-30T10:38:33.854Z,871.88
2019-03-30T10:39:33.782Z,596.25
2019-03-30T10:40:33.711Z,410.63
2019-03-30T10:41:33.641Z,540.00
2019-03-30T10:42:33.568Z,725.63
2019-03-30T10:43:33.497Z,821.25
2019-03-30T10:44:33.439Z,1411.88
2019-03-30T10:45:33.356Z,1771.88
2019-03-30T10:46:33.284Z,1456.88
2019-03-30T10:47:33.415Z,753.75
2019-03-30T10:48:33.234Z,680.63
2019-03-30T10:49:33.141Z,1040.63
2019-03-30T10:50:33.079Z,967.50
2019-03-30T10:51:32.936Z,551.25
2019-03-30T10:52:32.860Z,1411.88
2019-03-30T10:53:32.790Z,2761.88
2019-03-30T10:54:32.718Z,2452.50
2019-03-30T10:55:32.647Z,1822.50
2019-03-30T10:56:32.579Z,950.63
2019-03-30T10:57:32.507Z,691.88
2019-03-30T10:58:32.438Z,658.13
2019-03-30T10:59:32.366Z,916.88
2019-03-30T11:00:32.297Z,1186.88
2019-03-30T11:01:32.230Z,1940.63
2019-03-30T11:02:32.160Z,2317.50
2019-03-30T11:03:32.088Z,2210.63
2019-03-30T11:04:32.019Z,1670.63
2019-03-30T11:05:31.950Z,1535.63
2019-03-30T11:06:31.880Z,1462.50
2019-03-30T11:07:31.811Z,1355.63
2019-03-30T11:08:31.745Z,1428.75
2019-03-30T11:09:31.672Z,1226.25
2019-03-30T11:10:31.604Z,1423.13
2019-03-30T11:11:31.536Z,1918.13
2019-03-30T11:12:31.470Z,2643.75
2019-03-30T11:13:31.399Z,2823.75
2019-03-30T11:14:31.330Z,2525.63
2019-03-30T11:15:34.062Z,1996.88
2019-03-30T11:16:31.194Z,2008.13
2019-03-30T11:17:31.124Z,2115.00
2019-03-30T11:18:31.058Z,1895.63
2019-03-30T11:19:30.990Z,1980.00
2019-03-30T11:20:30.922Z,1749.38
2019-03-30T11:21:30.856Z,1603.13
2019-03-30T11:22:30.790Z,1265.63
2019-03-30T11:23:30.719Z,1783.13
2019-03-30T11:24:30.653Z,2593.13
2019-03-30T11:25:30.584Z,2463.75
2019-03-30T11:26:30.517Z,3144.38
2019-03-30T11:27:30.450Z,3600.00
2019-03-30T11:28:30.385Z,3369.38
2019-03-30T11:29:30.317Z,3436.88
2019-03-30T11:30:30.266Z,3481.88
2019-03-30T11:31:30.184Z,3436.88
2019-03-30T11:32:30.117Z,3903.75
2019-03-30T11:37:38.896Z,4162.50
2019-03-30T11:38:42.263Z,4387.50
2019-03-30T11:39:41.388Z,4387.50
2019-03-30T11:40:38.702Z,4432.50
2019-03-30T11:44:01.141Z,4095.00
2019-03-30T11:45:01.081Z,4168.13
2019-03-30T11:46:02.230Z,4123.13
2019-03-30T11:47:00.951Z,4106.25
2019-03-30T11:48:00.888Z,4117.50
2019-03-30T11:49:00.826Z,3881.25
2019-03-30T11:50:00.879Z,3785.63
2019-03-30T11:51:00.737Z,3999.38
2019-03-30T11:52:00.638Z,4269.38
2019-03-30T11:53:00.582Z,4353.75
2019-03-30T11:54:00.515Z,4342.50
2019-03-30T11:55:47.958Z,4123.13
2019-03-30T12:06:06.308Z,3892.50
2019-03-30T12:07:06.244Z,3892.50
2019-03-30T12:08:06.181Z,3802.50
2019-03-30T12:09:06.120Z,3830.63
2019-03-30T12:10:06.058Z,3735.00
2019-03-30T12:11:05.998Z,3915.00
2019-03-30T12:12:05.940Z,3999.38
2019-03-30T12:13:05.913Z,3763.13
2019-03-30T12:14:05.814Z,3639.38
2019-03-30T12:15:05.756Z,3521.25
2019-03-30T12:16:05.694Z,3543.75
2019-03-30T12:17:05.631Z,3301.88
2019-03-30T12:18:05.574Z,3127.50
2019-03-30T12:19:05.511Z,3031.88
2019-03-30T12:20:05.453Z,2947.50
2019-03-30T12:21:05.389Z,3076.88
2019-03-30T12:22:05.329Z,3352.50
2019-03-30T12:23:05.270Z,3600.00
2019-03-30T12:24:05.211Z,3706.88
2019-03-30T12:25:05.149Z,3695.63
2019-03-30T12:26:05.090Z,3853.13
2019-03-30T12:27:05.027Z,3898.13
2019-03-30T12:28:04.967Z,3678.75
2019-03-30T12:29:04.910Z,3622.50
2019-03-30T12:30:04.846Z,3493.13
2019-03-30T12:31:04.787Z,3262.50
2019-03-30T12:32:04.729Z,3498.75
2019-03-30T12:33:04.667Z,3600.00
2019-03-30T12:34:04.606Z,3678.75
2019-03-30T12:35:04.546Z,3673.13
2019-03-30T12:36:04.486Z,3678.75
2019-03-30T12:37:04.425Z,3583.13
2019-03-30T12:38:04.366Z,3470.63
2019-03-30T12:39:04.307Z,3605.63
2019-03-30T12:40:04.248Z,3611.25
2019-03-30T12:41:04.188Z,3808.13
2019-03-30T12:42:04.129Z,3943.13
2019-03-30T12:43:04.069Z,3757.50
2019-03-30T12:44:04.011Z,3864.38
2019-03-30T12:45:03.949Z,3898.13
2019-03-30T12:46:03.890Z,3892.50
2019-03-30T12:47:03.832Z,3976.88
2019-03-30T12:48:03.772Z,3965.63
2019-03-30T12:49:03.716Z,4005.00
2019-03-30T12:50:03.652Z,3948.75
2019-03-30T12:51:03.593Z,3937.50
2019-03-30T12:52:03.533Z,3847.50
2019-03-30T12:53:03.479Z,3751.88
2019-03-30T12:54:03.417Z,3819.38
2019-03-30T12:55:03.353Z,3729.38
2019-03-30T12:56:03.296Z,3690.00
2019-03-30T12:57:03.234Z,3729.38
2019-03-30T12:58:03.175Z,3802.50
2019-03-30T12:59:03.116Z,3886.88
2019-03-30T13:00:03.070Z,3706.88
2019-03-30T13:01:02.997Z,3555.00
2019-03-30T13:02:02.939Z,3802.50
2019-03-30T13:03:02.880Z,3870.00